Aérodrome :
LOGIN :

S'inscrire | Disclaimer

   EN    FR    IT 

 










Légende :    VFR   VFR Marginal   IFR   IFR Intensif   IFR Très Intensif
Visi : 
Plafond : 
>= 8 km
>= 3000ft
5 à 8 km
1000 à 3000 ft
1500m à 5 km
500 à 1000 ft
800 à 1500m
200 à 500 ft
< 800m
< 200 ft
Symboles :   Orages  Brouillard  Fortes neiges  Fortes précipitations  Vent > 20 kt
SIGMETs :   Divers  Orages  Givrage  Turbulence  Onde Orograph.  Cendres Volcan.







- Altitude de l'aérodrome : 220 ft
- Code IATA : CWL
- Voir les cartes d'approche


EGFF - Cardiff Rhoose

METARs EXPIRÉS :
  • 210250Z AUTO 30004KT 2200 DZ BKN003 OVC018 15/15 Q1020
  • 210520Z AUTO VRB03KT 9999 SCT009 BKN013 OVC017 15/15 Q1020
  • 210450Z AUTO 30005KT 9999 OVC014 15/15 Q1020

TAF TAF EGFF
Valide du 21 à 06h jusqu'au 22 à 06h UTC


210456Z 2106/2206 27007KT 9999 SCT018
TEMPO 2106/2112 9000 BKN010
PROB30
TEMPO 2106/2110 4000 -DZ BR BKN003
BECMG 2120/2123 BKN014
TEMPO 2122/2206 BKN005
PROB30
TEMPO 2122/2206 5000 -DZ
ATIS : +44 1446 729 319
Pas de NOTAMs connus pour ce terrain.



MET'MAP, la Météo Aéronautique d'un coup d'oeil ! - Copyright ORBIFLY Décembre 2007 - Disclaimer

ORBIFLY MET'MAP TEAM :

Programmation & Développement : Alexandra Zaïnal
Conception & Développement : Baudouin d'Aumeries
Co-Programmation & Développement : Marc-Olivier Méhu
Soutien technique & logistique : Manuel Goepfert

Contact : metmap@orbifly.com




SOURCES & CREDITS :

   NOAA